sensor_id;sensor_type;location;lat;lon;timestamp;P1;durP1;ratioP1;P2;durP2;ratioP2
12869;SDS011;6503;48.572;13.460;2023-11-21T00:00:03;7.13;;;5.18;;
12869;SDS011;6503;48.572;13.460;2023-11-21T00:02:37;6.68;;;5.43;;
12869;SDS011;6503;48.572;13.460;2023-11-21T00:05:06;7.00;;;4.97;;
12869;SDS011;6503;48.572;13.460;2023-11-21T00:07:35;7.40;;;5.30;;
12869;SDS011;6503;48.572;13.460;2023-11-21T00:10:02;7.05;;;5.10;;
12869;SDS011;6503;48.572;13.460;2023-11-21T00:12:33;10.43;;;6.10;;
12869;SDS011;6503;48.572;13.460;2023-11-21T00:15:00;6.90;;;5.53;;
12869;SDS011;6503;48.572;13.460;2023-11-21T00:17:28;9.45;;;5.82;;
12869;SDS011;6503;48.572;13.460;2023-11-21T00:20:01;9.38;;;5.68;;
12869;SDS011;6503;48.572;13.460;2023-11-21T00:22:37;7.10;;;5.55;;
12869;SDS011;6503;48.572;13.460;2023-11-21T00:25:05;9.35;;;6.10;;
12869;SDS011;6503;48.572;13.460;2023-11-21T00:27:34;8.88;;;5.82;;
12869;SDS011;6503;48.572;13.460;2023-11-21T00:30:01;9.60;;;6.35;;
12869;SDS011;6503;48.572;13.460;2023-11-21T00:32:31;9.77;;;6.00;;
12869;SDS011;6503;48.572;13.460;2023-11-21T00:34:59;11.52;;;5.90;;
12869;SDS011;6503;48.572;13.460;2023-11-21T00:37:27;9.23;;;5.40;;
12869;SDS011;6503;48.572;13.460;2023-11-21T00:39:57;8.27;;;5.47;;
12869;SDS011;6503;48.572;13.460;2023-11-21T00:42:24;7.57;;;4.70;;
12869;SDS011;6503;48.572;13.460;2023-11-21T00:44:52;6.95;;;5.13;;
12869;SDS011;6503;48.572;13.460;2023-11-21T00:47:20;7.97;;;5.40;;
12869;SDS011;6503;48.572;13.460;2023-11-21T00:49:47;8.65;;;5.00;;
12869;SDS011;6503;48.572;13.460;2023-11-21T00:52:15;8.95;;;5.47;;
12869;SDS011;6503;48.572;13.460;2023-11-21T00:54:44;9.45;;;5.78;;
12869;SDS011;6503;48.572;13.460;2023-11-21T00:57:13;8.90;;;5.80;;
12869;SDS011;6503;48.572;13.460;2023-11-21T00:59:40;8.32;;;6.10;;
12869;SDS011;6503;48.572;13.460;2023-11-21T01:02:08;10.68;;;6.03;;
12869;SDS011;6503;48.572;13.460;2023-11-21T01:04:35;12.30;;;6.45;;
12869;SDS011;6503;48.572;13.460;2023-11-21T01:07:04;9.82;;;6.85;;
12869;SDS011;6503;48.572;13.460;2023-11-21T01:09:31;9.48;;;6.15;;
12869;SDS011;6503;48.572;13.460;2023-11-21T01:12:00;9.18;;;6.30;;
12869;SDS011;6503;48.572;13.460;2023-11-21T01:14:28;10.03;;;6.57;;
12869;SDS011;6503;48.572;13.460;2023-11-21T01:16:55;9.07;;;6.25;;
12869;SDS011;6503;48.572;13.460;2023-11-21T01:19:22;10.82;;;7.07;;
12869;SDS011;6503;48.572;13.460;2023-11-21T01:21:53;9.80;;;6.57;;
12869;SDS011;6503;48.572;13.460;2023-11-21T01:24:23;8.60;;;6.80;;
12869;SDS011;6503;48.572;13.460;2023-11-21T01:26:50;11.07;;;7.07;;
12869;SDS011;6503;48.572;13.460;2023-11-21T01:29:19;10.05;;;6.65;;
12869;SDS011;6503;48.572;13.460;2023-11-21T01:31:46;12.13;;;7.13;;
12869;SDS011;6503;48.572;13.460;2023-11-21T01:34:13;11.30;;;7.10;;
12869;SDS011;6503;48.572;13.460;2023-11-21T01:36:41;13.07;;;7.78;;
12869;SDS011;6503;48.572;13.460;2023-11-21T01:39:08;12.68;;;8.27;;
12869;SDS011;6503;48.572;13.460;2023-11-21T01:41:40;14.90;;;8.07;;
12869;SDS011;6503;48.572;13.460;2023-11-21T01:44:10;14.02;;;7.85;;
12869;SDS011;6503;48.572;13.460;2023-11-21T01:46:40;11.90;;;7.93;;
12869;SDS011;6503;48.572;13.460;2023-11-21T01:49:07;13.05;;;8.52;;
12869;SDS011;6503;48.572;13.460;2023-11-21T01:51:38;11.18;;;7.75;;
12869;SDS011;6503;48.572;13.460;2023-11-21T01:54:05;11.50;;;7.80;;
12869;SDS011;6503;48.572;13.460;2023-11-21T01:56:33;12.73;;;7.80;;
12869;SDS011;6503;48.572;13.460;2023-11-21T01:59:01;12.35;;;7.82;;
12869;SDS011;6503;48.572;13.460;2023-11-21T02:01:28;12.07;;;7.50;;
12869;SDS011;6503;48.572;13.460;2023-11-21T02:03:58;10.90;;;7.45;;
12869;SDS011;6503;48.572;13.460;2023-11-21T02:06:26;11.88;;;7.75;;
12869;SDS011;6503;48.572;13.460;2023-11-21T02:08:56;12.82;;;8.20;;
12869;SDS011;6503;48.572;13.460;2023-11-21T02:11:24;13.70;;;8.70;;
12869;SDS011;6503;48.572;13.460;2023-11-21T02:13:55;12.20;;;7.97;;
12869;SDS011;6503;48.572;13.460;2023-11-21T02:16:23;13.38;;;7.55;;
12869;SDS011;6503;48.572;13.460;2023-11-21T02:18:50;10.68;;;7.50;;
12869;SDS011;6503;48.572;13.460;2023-11-21T02:21:22;10.80;;;7.80;;
12869;SDS011;6503;48.572;13.460;2023-11-21T02:23:53;11.90;;;7.30;;
12869;SDS011;6503;48.572;13.460;2023-11-21T02:26:20;11.57;;;7.35;;
12869;SDS011;6503;48.572;13.460;2023-11-21T02:28:48;10.82;;;7.35;;
12869;SDS011;6503;48.572;13.460;2023-11-21T02:31:16;12.75;;;7.88;;
12869;SDS011;6503;48.572;13.460;2023-11-21T02:33:44;11.93;;;7.40;;
12869;SDS011;6503;48.572;13.460;2023-11-21T02:36:11;10.50;;;7.03;;
12869;SDS011;6503;48.572;13.460;2023-11-21T02:38:42;11.55;;;6.93;;
12869;SDS011;6503;48.572;13.460;2023-11-21T02:41:12;10.45;;;6.45;;
12869;SDS011;6503;48.572;13.460;2023-11-21T02:43:40;9.48;;;6.30;;
12869;SDS011;6503;48.572;13.460;2023-11-21T02:46:08;9.00;;;5.97;;
12869;SDS011;6503;48.572;13.460;2023-11-21T02:48:36;10.20;;;6.38;;
12869;SDS011;6503;48.572;13.460;2023-11-21T02:51:04;7.78;;;6.05;;
12869;SDS011;6503;48.572;13.460;2023-11-21T02:53:31;9.55;;;6.43;;
12869;SDS011;6503;48.572;13.460;2023-11-21T02:55:58;10.30;;;6.88;;
12869;SDS011;6503;48.572;13.460;2023-11-21T02:58:40;9.27;;;6.82;;
12869;SDS011;6503;48.572;13.460;2023-11-21T03:01:08;10.02;;;6.75;;
12869;SDS011;6503;48.572;13.460;2023-11-21T03:03:36;12.00;;;7.68;;
12869;SDS011;6503;48.572;13.460;2023-11-21T03:06:04;13.73;;;8.05;;
12869;SDS011;6503;48.572;13.460;2023-11-21T03:08:32;10.90;;;7.55;;
12869;SDS011;6503;48.572;13.460;2023-11-21T03:10:59;12.30;;;8.00;;
12869;SDS011;6503;48.572;13.460;2023-11-21T03:13:27;11.80;;;6.80;;
12869;SDS011;6503;48.572;13.460;2023-11-21T03:15:58;10.38;;;6.32;;
12869;SDS011;6503;48.572;13.460;2023-11-21T03:18:25;10.30;;;6.63;;
12869;SDS011;6503;48.572;13.460;2023-11-21T03:20:54;10.02;;;6.50;;
12869;SDS011;6503;48.572;13.460;2023-11-21T03:23:24;10.13;;;6.68;;
12869;SDS011;6503;48.572;13.460;2023-11-21T03:25:52;10.18;;;6.40;;
12869;SDS011;6503;48.572;13.460;2023-11-21T03:28:22;10.10;;;6.65;;
12869;SDS011;6503;48.572;13.460;2023-11-21T03:30:53;10.55;;;5.88;;
12869;SDS011;6503;48.572;13.460;2023-11-21T03:33:27;11.40;;;6.30;;
12869;SDS011;6503;48.572;13.460;2023-11-21T03:35:56;10.32;;;6.13;;
12869;SDS011;6503;48.572;13.460;2023-11-21T03:38:24;10.88;;;6.95;;
12869;SDS011;6503;48.572;13.460;2023-11-21T03:40:51;10.82;;;6.72;;
12869;SDS011;6503;48.572;13.460;2023-11-21T03:43:18;10.80;;;6.40;;
12869;SDS011;6503;48.572;13.460;2023-11-21T03:45:46;12.45;;;7.80;;
12869;SDS011;6503;48.572;13.460;2023-11-21T03:48:14;11.50;;;6.88;;
12869;SDS011;6503;48.572;13.460;2023-11-21T03:50:43;9.95;;;6.75;;
12869;SDS011;6503;48.572;13.460;2023-11-21T03:53:12;13.45;;;7.10;;
12869;SDS011;6503;48.572;13.460;2023-11-21T03:55:45;10.93;;;7.07;;
12869;SDS011;6503;48.572;13.460;2023-11-21T03:58:13;10.93;;;7.32;;
12869;SDS011;6503;48.572;13.460;2023-11-21T04:00:45;12.40;;;7.50;;
12869;SDS011;6503;48.572;13.460;2023-11-21T04:03:14;12.48;;;7.07;;
12869;SDS011;6503;48.572;13.460;2023-11-21T04:05:43;12.77;;;7.60;;
12869;SDS011;6503;48.572;13.460;2023-11-21T04:08:12;9.93;;;6.97;;
12869;SDS011;6503;48.572;13.460;2023-11-21T04:10:39;12.68;;;7.90;;
12869;SDS011;6503;48.572;13.460;2023-11-21T04:13:07;10.38;;;7.18;;
12869;SDS011;6503;48.572;13.460;2023-11-21T04:15:35;11.15;;;6.90;;
12869;SDS011;6503;48.572;13.460;2023-11-21T04:18:04;8.70;;;7.25;;
12869;SDS011;6503;48.572;13.460;2023-11-21T04:20:31;16.40;;;6.70;;
12869;SDS011;6503;48.572;13.460;2023-11-21T04:23:00;11.18;;;7.05;;
12869;SDS011;6503;48.572;13.460;2023-11-21T04:25:28;10.57;;;6.88;;
12869;SDS011;6503;48.572;13.460;2023-11-21T04:27:57;11.50;;;7.20;;
12869;SDS011;6503;48.572;13.460;2023-11-21T04:30:25;11.98;;;7.45;;
12869;SDS011;6503;48.572;13.460;2023-11-21T04:32:54;12.10;;;7.60;;
12869;SDS011;6503;48.572;13.460;2023-11-21T04:35:22;9.93;;;7.13;;
12869;SDS011;6503;48.572;13.460;2023-11-21T04:37:49;13.32;;;6.90;;
12869;SDS011;6503;48.572;13.460;2023-11-21T04:40:18;10.82;;;7.32;;
12869;SDS011;6503;48.572;13.460;2023-11-21T04:42:48;9.90;;;7.20;;
12869;SDS011;6503;48.572;13.460;2023-11-21T04:45:15;10.98;;;6.30;;
12869;SDS011;6503;48.572;13.460;2023-11-21T04:47:42;11.23;;;7.03;;
12869;SDS011;6503;48.572;13.460;2023-11-21T04:50:10;13.45;;;7.18;;
12869;SDS011;6503;48.572;13.460;2023-11-21T04:52:38;12.90;;;7.25;;
12869;SDS011;6503;48.572;13.460;2023-11-21T04:55:05;12.98;;;6.80;;
12869;SDS011;6503;48.572;13.460;2023-11-21T04:57:36;10.68;;;7.05;;
12869;SDS011;6503;48.572;13.460;2023-11-21T05:00:04;22.15;;;18.52;;
12869;SDS011;6503;48.572;13.460;2023-11-21T05:02:32;11.90;;;7.72;;
12869;SDS011;6503;48.572;13.460;2023-11-21T05:05:02;10.13;;;6.70;;
12869;SDS011;6503;48.572;13.460;2023-11-21T05:07:36;10.25;;;7.40;;
12869;SDS011;6503;48.572;13.460;2023-11-21T05:10:08;9.68;;;7.82;;
12869;SDS011;6503;48.572;13.460;2023-11-21T05:12:41;10.43;;;6.45;;
12869;SDS011;6503;48.572;13.460;2023-11-21T05:17:37;11.23;;;6.55;;
12869;SDS011;6503;48.572;13.460;2023-11-21T05:20:07;11.48;;;7.25;;
12869;SDS011;6503;48.572;13.460;2023-11-21T05:22:35;11.60;;;7.72;;
12869;SDS011;6503;48.572;13.460;2023-11-21T05:25:02;9.70;;;7.13;;
12869;SDS011;6503;48.572;13.460;2023-11-21T05:27:32;10.48;;;7.20;;
12869;SDS011;6503;48.572;13.460;2023-11-21T05:30:01;15.25;;;7.85;;
12869;SDS011;6503;48.572;13.460;2023-11-21T05:34:57;10.93;;;7.88;;
12869;SDS011;6503;48.572;13.460;2023-11-21T05:37:27;12.07;;;8.10;;
12869;SDS011;6503;48.572;13.460;2023-11-21T05:39:55;16.13;;;9.10;;
12869;SDS011;6503;48.572;13.460;2023-11-21T05:42:22;13.60;;;8.30;;
12869;SDS011;6503;48.572;13.460;2023-11-21T05:44:52;14.82;;;8.48;;
12869;SDS011;6503;48.572;13.460;2023-11-21T05:47:26;11.23;;;8.25;;
12869;SDS011;6503;48.572;13.460;2023-11-21T05:50:07;12.75;;;8.52;;
12869;SDS011;6503;48.572;13.460;2023-11-21T05:52:37;10.50;;;8.20;;
12869;SDS011;6503;48.572;13.460;2023-11-21T05:55:06;12.20;;;7.90;;
12869;SDS011;6503;48.572;13.460;2023-11-21T05:57:34;12.13;;;8.45;;
12869;SDS011;6503;48.572;13.460;2023-11-21T06:00:03;11.02;;;8.07;;
12869;SDS011;6503;48.572;13.460;2023-11-21T06:02:37;14.30;;;8.35;;
12869;SDS011;6503;48.572;13.460;2023-11-21T06:05:05;12.37;;;8.10;;
12869;SDS011;6503;48.572;13.460;2023-11-21T06:07:33;15.70;;;8.77;;
12869;SDS011;6503;48.572;13.460;2023-11-21T06:10:01;13.52;;;8.45;;
12869;SDS011;6503;48.572;13.460;2023-11-21T06:12:35;12.18;;;8.38;;
12869;SDS011;6503;48.572;13.460;2023-11-21T06:15:02;12.75;;;8.10;;
12869;SDS011;6503;48.572;13.460;2023-11-21T06:17:38;12.07;;;7.53;;
12869;SDS011;6503;48.572;13.460;2023-11-21T06:20:24;11.55;;;7.75;;
12869;SDS011;6503;48.572;13.460;2023-11-21T06:22:53;13.20;;;7.47;;
12869;SDS011;6503;48.572;13.460;2023-11-21T06:25:20;14.38;;;8.60;;
12869;SDS011;6503;48.572;13.460;2023-11-21T06:27:48;11.20;;;7.53;;
12869;SDS011;6503;48.572;13.460;2023-11-21T06:30:16;14.15;;;8.23;;
12869;SDS011;6503;48.572;13.460;2023-11-21T06:35:48;13.55;;;7.95;;
12869;SDS011;6503;48.572;13.460;2023-11-21T06:38:34;12.80;;;8.82;;
12869;SDS011;6503;48.572;13.460;2023-11-21T06:41:13;14.48;;;9.27;;
12869;SDS011;6503;48.572;13.460;2023-11-21T06:43:54;13.10;;;8.82;;
12869;SDS011;6503;48.572;13.460;2023-11-21T06:49:39;12.52;;;7.65;;
12869;SDS011;6503;48.572;13.460;2023-11-21T06:52:17;13.25;;;8.38;;
12869;SDS011;6503;48.572;13.460;2023-11-21T06:54:47;13.38;;;8.75;;
12869;SDS011;6503;48.572;13.460;2023-11-21T06:57:16;13.95;;;8.80;;
12869;SDS011;6503;48.572;13.460;2023-11-21T06:59:44;15.13;;;8.98;;
12869;SDS011;6503;48.572;13.460;2023-11-21T07:02:11;13.60;;;8.40;;
12869;SDS011;6503;48.572;13.460;2023-11-21T07:04:41;14.57;;;7.78;;
12869;SDS011;6503;48.572;13.460;2023-11-21T07:07:09;13.27;;;7.80;;
12869;SDS011;6503;48.572;13.460;2023-11-21T07:09:38;14.02;;;9.52;;
12869;SDS011;6503;48.572;13.460;2023-11-21T07:12:07;11.70;;;8.68;;
12869;SDS011;6503;48.572;13.460;2023-11-21T07:14:36;15.82;;;8.32;;
12869;SDS011;6503;48.572;13.460;2023-11-21T07:17:07;12.25;;;8.55;;
12869;SDS011;6503;48.572;13.460;2023-11-21T07:19:37;12.25;;;7.80;;
12869;SDS011;6503;48.572;13.460;2023-11-21T07:22:06;12.77;;;8.57;;
12869;SDS011;6503;48.572;13.460;2023-11-21T07:24:41;13.25;;;8.90;;
12869;SDS011;6503;48.572;13.460;2023-11-21T07:27:11;14.35;;;8.95;;
12869;SDS011;6503;48.572;13.460;2023-11-21T07:29:41;13.95;;;9.48;;
12869;SDS011;6503;48.572;13.460;2023-11-21T07:32:09;13.98;;;8.98;;
12869;SDS011;6503;48.572;13.460;2023-11-21T07:37:38;13.40;;;10.15;;
12869;SDS011;6503;48.572;13.460;2023-11-21T07:43:11;13.90;;;9.07;;
12869;SDS011;6503;48.572;13.460;2023-11-21T07:45:39;13.18;;;9.30;;
12869;SDS011;6503;48.572;13.460;2023-11-21T07:48:07;16.33;;;8.70;;
12869;SDS011;6503;48.572;13.460;2023-11-21T07:50:35;14.98;;;9.20;;
12869;SDS011;6503;48.572;13.460;2023-11-21T07:53:03;18.55;;;11.48;;
12869;SDS011;6503;48.572;13.460;2023-11-21T07:55:30;15.68;;;9.48;;
12869;SDS011;6503;48.572;13.460;2023-11-21T07:57:59;13.88;;;8.90;;
12869;SDS011;6503;48.572;13.460;2023-11-21T08:00:31;15.93;;;8.85;;
12869;SDS011;6503;48.572;13.460;2023-11-21T08:02:59;15.45;;;8.35;;
12869;SDS011;6503;48.572;13.460;2023-11-21T08:05:27;13.90;;;9.00;;
12869;SDS011;6503;48.572;13.460;2023-11-21T08:07:56;15.77;;;8.40;;
12869;SDS011;6503;48.572;13.460;2023-11-21T08:10:24;13.27;;;8.32;;
12869;SDS011;6503;48.572;13.460;2023-11-21T08:12:52;15.07;;;8.68;;
12869;SDS011;6503;48.572;13.460;2023-11-21T08:15:20;13.45;;;8.63;;
12869;SDS011;6503;48.572;13.460;2023-11-21T08:17:49;14.80;;;9.15;;
12869;SDS011;6503;48.572;13.460;2023-11-21T08:20:17;15.63;;;9.05;;
12869;SDS011;6503;48.572;13.460;2023-11-21T08:22:45;16.00;;;8.75;;
12869;SDS011;6503;48.572;13.460;2023-11-21T08:25:14;15.77;;;9.95;;
12869;SDS011;6503;48.572;13.460;2023-11-21T08:31:02;13.50;;;8.57;;
12869;SDS011;6503;48.572;13.460;2023-11-21T08:36:49;16.48;;;9.38;;
12869;SDS011;6503;48.572;13.460;2023-11-21T08:39:17;22.55;;;10.43;;
12869;SDS011;6503;48.572;13.460;2023-11-21T08:41:49;14.30;;;9.00;;
12869;SDS011;6503;48.572;13.460;2023-11-21T08:44:16;15.32;;;9.25;;
12869;SDS011;6503;48.572;13.460;2023-11-21T08:46:47;22.02;;;9.23;;
12869;SDS011;6503;48.572;13.460;2023-11-21T08:49:16;17.90;;;9.57;;
12869;SDS011;6503;48.572;13.460;2023-11-21T08:51:46;21.67;;;9.30;;
12869;SDS011;6503;48.572;13.460;2023-11-21T08:54:15;20.92;;;9.02;;
12869;SDS011;6503;48.572;13.460;2023-11-21T08:56:43;18.05;;;8.30;;
12869;SDS011;6503;48.572;13.460;2023-11-21T08:59:12;13.98;;;8.20;;
12869;SDS011;6503;48.572;13.460;2023-11-21T09:01:40;14.30;;;8.05;;
12869;SDS011;6503;48.572;13.460;2023-11-21T09:04:10;11.40;;;8.23;;
12869;SDS011;6503;48.572;13.460;2023-11-21T09:06:39;12.18;;;8.45;;
12869;SDS011;6503;48.572;13.460;2023-11-21T09:09:06;18.73;;;7.43;;
12869;SDS011;6503;48.572;13.460;2023-11-21T09:14:06;11.93;;;7.68;;
12869;SDS011;6503;48.572;13.460;2023-11-21T09:16:35;13.88;;;8.20;;
12869;SDS011;6503;48.572;13.460;2023-11-21T09:19:03;12.75;;;8.15;;
12869;SDS011;6503;48.572;13.460;2023-11-21T09:21:32;13.60;;;9.20;;
12869;SDS011;6503;48.572;13.460;2023-11-21T09:24:01;17.15;;;8.30;;
12869;SDS011;6503;48.572;13.460;2023-11-21T09:26:30;15.93;;;9.18;;
12869;SDS011;6503;48.572;13.460;2023-11-21T09:29:06;15.98;;;7.30;;
12869;SDS011;6503;48.572;13.460;2023-11-21T09:31:37;11.90;;;7.38;;
12869;SDS011;6503;48.572;13.460;2023-11-21T09:34:05;15.30;;;7.93;;
12869;SDS011;6503;48.572;13.460;2023-11-21T09:36:33;13.50;;;7.38;;
12869;SDS011;6503;48.572;13.460;2023-11-21T09:39:05;14.07;;;8.15;;
12869;SDS011;6503;48.572;13.460;2023-11-21T09:41:56;15.20;;;8.55;;
12869;SDS011;6503;48.572;13.460;2023-11-21T09:44:29;12.18;;;8.30;;
12869;SDS011;6503;48.572;13.460;2023-11-21T09:46:59;14.38;;;8.10;;
12869;SDS011;6503;48.572;13.460;2023-11-21T09:49:27;13.88;;;8.48;;
12869;SDS011;6503;48.572;13.460;2023-11-21T09:52:00;18.90;;;11.60;;
12869;SDS011;6503;48.572;13.460;2023-11-21T09:54:30;13.07;;;7.05;;
12869;SDS011;6503;48.572;13.460;2023-11-21T09:56:58;15.13;;;8.10;;
12869;SDS011;6503;48.572;13.460;2023-11-21T09:59:31;14.32;;;7.30;;
12869;SDS011;6503;48.572;13.460;2023-11-21T10:02:01;12.43;;;6.97;;
12869;SDS011;6503;48.572;13.460;2023-11-21T10:04:31;15.02;;;7.47;;
12869;SDS011;6503;48.572;13.460;2023-11-21T10:07:04;13.43;;;8.55;;
12869;SDS011;6503;48.572;13.460;2023-11-21T10:09:34;11.30;;;6.63;;
12869;SDS011;6503;48.572;13.460;2023-11-21T10:12:05;14.75;;;7.35;;
12869;SDS011;6503;48.572;13.460;2023-11-21T10:14:38;14.45;;;7.40;;
12869;SDS011;6503;48.572;13.460;2023-11-21T10:17:09;12.35;;;6.55;;
12869;SDS011;6503;48.572;13.460;2023-11-21T10:19:45;12.00;;;6.80;;
12869;SDS011;6503;48.572;13.460;2023-11-21T10:22:15;10.93;;;7.18;;
12869;SDS011;6503;48.572;13.460;2023-11-21T10:24:55;11.13;;;6.88;;
12869;SDS011;6503;48.572;13.460;2023-11-21T10:27:49;8.65;;;5.43;;
12869;SDS011;6503;48.572;13.460;2023-11-21T11:13:22;10.40;;;3.80;;
12869;SDS011;6503;48.572;13.460;2023-11-21T11:16:03;8.30;;;3.55;;
12869;SDS011;6503;48.572;13.460;2023-11-21T11:20:06;6.97;;;3.60;;
12869;SDS011;6503;48.572;13.460;2023-11-21T11:22:55;8.07;;;4.15;;
12869;SDS011;6503;48.572;13.460;2023-11-21T11:26:07;10.52;;;4.80;;
12869;SDS011;6503;48.572;13.460;2023-11-21T11:50:18;11.05;;;4.72;;
12869;SDS011;6503;48.572;13.460;2023-11-21T11:52:47;16.75;;;8.15;;
12869;SDS011;6503;48.572;13.460;2023-11-21T11:55:22;5.85;;;3.78;;
12869;SDS011;6503;48.572;13.460;2023-11-21T12:01:31;10.05;;;5.10;;
12869;SDS011;6503;48.572;13.460;2023-11-21T12:13:17;7.90;;;4.47;;
12869;SDS011;6503;48.572;13.460;2023-11-21T12:16:08;8.85;;;4.40;;
12869;SDS011;6503;48.572;13.460;2023-11-21T12:19:09;6.75;;;3.78;;
12869;SDS011;6503;48.572;13.460;2023-11-21T12:21:57;9.60;;;3.90;;
12869;SDS011;6503;48.572;13.460;2023-11-21T12:24:55;5.30;;;3.38;;
12869;SDS011;6503;48.572;13.460;2023-11-21T12:27:41;6.82;;;3.80;;
12869;SDS011;6503;48.572;13.460;2023-11-21T12:30:11;6.28;;;3.75;;
12869;SDS011;6503;48.572;13.460;2023-11-21T12:32:41;6.88;;;3.67;;
12869;SDS011;6503;48.572;13.460;2023-11-21T12:35:09;4.60;;;3.80;;
12869;SDS011;6503;48.572;13.460;2023-11-21T12:37:37;6.32;;;3.25;;
12869;SDS011;6503;48.572;13.460;2023-11-21T12:40:05;7.97;;;4.22;;
12869;SDS011;6503;48.572;13.460;2023-11-21T12:42:36;4.57;;;3.60;;
12869;SDS011;6503;48.572;13.460;2023-11-21T12:45:21;6.07;;;3.00;;
12869;SDS011;6503;48.572;13.460;2023-11-21T12:47:51;7.80;;;3.17;;
12869;SDS011;6503;48.572;13.460;2023-11-21T12:50:20;6.82;;;3.60;;
12869;SDS011;6503;48.572;13.460;2023-11-21T12:52:49;7.60;;;4.38;;
12869;SDS011;6503;48.572;13.460;2023-11-21T12:55:16;8.77;;;3.78;;
12869;SDS011;6503;48.572;13.460;2023-11-21T12:57:47;5.65;;;3.40;;
12869;SDS011;6503;48.572;13.460;2023-11-21T13:00:30;10.00;;;3.53;;
12869;SDS011;6503;48.572;13.460;2023-11-21T13:02:59;6.15;;;3.28;;
12869;SDS011;6503;48.572;13.460;2023-11-21T13:05:28;8.55;;;3.60;;
12869;SDS011;6503;48.572;13.460;2023-11-21T13:07:56;5.65;;;3.10;;
12869;SDS011;6503;48.572;13.460;2023-11-21T13:10:25;7.10;;;4.07;;
12869;SDS011;6503;48.572;13.460;2023-11-21T13:12:56;11.10;;;3.58;;
12869;SDS011;6503;48.572;13.460;2023-11-21T13:15:25;5.43;;;3.43;;
12869;SDS011;6503;48.572;13.460;2023-11-21T13:17:58;6.85;;;3.17;;
12869;SDS011;6503;48.572;13.460;2023-11-21T13:20:26;8.60;;;3.80;;
12869;SDS011;6503;48.572;13.460;2023-11-21T13:22:57;3.80;;;2.85;;
12869;SDS011;6503;48.572;13.460;2023-11-21T13:25:26;4.63;;;3.40;;
12869;SDS011;6503;48.572;13.460;2023-11-21T13:27:56;6.28;;;4.03;;
12869;SDS011;6503;48.572;13.460;2023-11-21T13:30:24;8.80;;;4.90;;
12869;SDS011;6503;48.572;13.460;2023-11-21T13:32:52;4.55;;;3.67;;
12869;SDS011;6503;48.572;13.460;2023-11-21T13:35:24;10.90;;;3.72;;
12869;SDS011;6503;48.572;13.460;2023-11-21T13:38:02;8.07;;;3.72;;
12869;SDS011;6503;48.572;13.460;2023-11-21T13:40:31;5.38;;;3.63;;
12869;SDS011;6503;48.572;13.460;2023-11-21T13:43:04;6.80;;;3.72;;
12869;SDS011;6503;48.572;13.460;2023-11-21T13:48:02;6.95;;;3.35;;
12869;SDS011;6503;48.572;13.460;2023-11-21T13:50:33;7.00;;;3.38;;
12869;SDS011;6503;48.572;13.460;2023-11-21T13:53:01;12.48;;;3.88;;
12869;SDS011;6503;48.572;13.460;2023-11-21T13:55:33;6.93;;;3.03;;
12869;SDS011;6503;48.572;13.460;2023-11-21T13:58:02;9.70;;;3.70;;
12869;SDS011;6503;48.572;13.460;2023-11-21T14:00:34;8.68;;;4.05;;
12869;SDS011;6503;48.572;13.460;2023-11-21T14:03:11;9.23;;;3.58;;
12869;SDS011;6503;48.572;13.460;2023-11-21T14:05:48;7.28;;;3.50;;
12869;SDS011;6503;48.572;13.460;2023-11-21T14:08:19;5.68;;;3.00;;
12869;SDS011;6503;48.572;13.460;2023-11-21T14:10:48;6.22;;;2.97;;
12869;SDS011;6503;48.572;13.460;2023-11-21T14:13:23;7.97;;;3.47;;
12869;SDS011;6503;48.572;13.460;2023-11-21T14:15:52;9.07;;;3.95;;
12869;SDS011;6503;48.572;13.460;2023-11-21T14:18:24;8.35;;;3.20;;
12869;SDS011;6503;48.572;13.460;2023-11-21T14:20:57;8.07;;;3.63;;
12869;SDS011;6503;48.572;13.460;2023-11-21T14:23:26;6.30;;;4.13;;
12869;SDS011;6503;48.572;13.460;2023-11-21T14:25:55;7.70;;;4.45;;
12869;SDS011;6503;48.572;13.460;2023-11-21T14:28:28;6.80;;;3.85;;
12869;SDS011;6503;48.572;13.460;2023-11-21T14:31:02;7.18;;;4.00;;
12869;SDS011;6503;48.572;13.460;2023-11-21T14:33:30;8.75;;;3.75;;
12869;SDS011;6503;48.572;13.460;2023-11-21T14:35:59;6.20;;;3.80;;
12869;SDS011;6503;48.572;13.460;2023-11-21T14:38:27;9.57;;;5.80;;
12869;SDS011;6503;48.572;13.460;2023-11-21T14:40:56;6.40;;;4.07;;
12869;SDS011;6503;48.572;13.460;2023-11-21T14:43:23;5.43;;;3.35;;
12869;SDS011;6503;48.572;13.460;2023-11-21T14:45:52;7.97;;;4.10;;
12869;SDS011;6503;48.572;13.460;2023-11-21T14:48:22;6.18;;;3.70;;
12869;SDS011;6503;48.572;13.460;2023-11-21T14:51:11;4.70;;;3.40;;
12869;SDS011;6503;48.572;13.460;2023-11-21T14:53:53;5.50;;;3.70;;
12869;SDS011;6503;48.572;13.460;2023-11-21T14:56:19;5.18;;;3.08;;
12869;SDS011;6503;48.572;13.460;2023-11-21T14:58:52;6.75;;;3.50;;
12869;SDS011;6503;48.572;13.460;2023-11-21T15:01:20;5.93;;;3.43;;
12869;SDS011;6503;48.572;13.460;2023-11-21T15:04:00;8.02;;;4.30;;
12869;SDS011;6503;48.572;13.460;2023-11-21T15:06:35;10.65;;;4.18;;
12869;SDS011;6503;48.572;13.460;2023-11-21T15:09:02;8.30;;;2.92;;
12869;SDS011;6503;48.572;13.460;2023-11-21T15:12:08;10.32;;;3.67;;
12869;SDS011;6503;48.572;13.460;2023-11-21T15:14:42;9.10;;;5.13;;
12869;SDS011;6503;48.572;13.460;2023-11-21T15:17:10;7.18;;;3.33;;
12869;SDS011;6503;48.572;13.460;2023-11-21T15:19:41;14.18;;;4.10;;
12869;SDS011;6503;48.572;13.460;2023-11-21T15:22:15;6.25;;;3.38;;
12869;SDS011;6503;48.572;13.460;2023-11-21T15:24:44;5.80;;;3.15;;
12869;SDS011;6503;48.572;13.460;2023-11-21T15:27:16;8.43;;;4.00;;
12869;SDS011;6503;48.572;13.460;2023-11-21T15:29:47;5.93;;;3.58;;
12869;SDS011;6503;48.572;13.460;2023-11-21T15:32:15;6.20;;;3.60;;
12869;SDS011;6503;48.572;13.460;2023-11-21T15:34:43;5.43;;;3.30;;
12869;SDS011;6503;48.572;13.460;2023-11-21T15:37:11;7.35;;;3.83;;
12869;SDS011;6503;48.572;13.460;2023-11-21T15:39:39;10.38;;;4.00;;
12869;SDS011;6503;48.572;13.460;2023-11-21T15:42:07;6.60;;;3.70;;
12869;SDS011;6503;48.572;13.460;2023-11-21T15:44:37;6.93;;;4.68;;
12869;SDS011;6503;48.572;13.460;2023-11-21T15:47:06;5.65;;;3.60;;
12869;SDS011;6503;48.572;13.460;2023-11-21T15:49:36;6.93;;;4.15;;
12869;SDS011;6503;48.572;13.460;2023-11-21T15:52:04;6.85;;;3.67;;
12869;SDS011;6503;48.572;13.460;2023-11-21T15:54:35;6.13;;;4.20;;
12869;SDS011;6503;48.572;13.460;2023-11-21T15:57:03;6.95;;;4.10;;
12869;SDS011;6503;48.572;13.460;2023-11-21T15:59:31;5.53;;;4.30;;
12869;SDS011;6503;48.572;13.460;2023-11-21T16:02:01;8.07;;;4.40;;
12869;SDS011;6503;48.572;13.460;2023-11-21T16:04:32;7.93;;;5.38;;
12869;SDS011;6503;48.572;13.460;2023-11-21T16:07:04;10.88;;;5.32;;
12869;SDS011;6503;48.572;13.460;2023-11-21T16:09:33;13.43;;;6.43;;
12869;SDS011;6503;48.572;13.460;2023-11-21T16:14:32;9.98;;;5.47;;
12869;SDS011;6503;48.572;13.460;2023-11-21T16:17:08;7.95;;;4.80;;
12869;SDS011;6503;48.572;13.460;2023-11-21T16:19:37;8.15;;;4.75;;
12869;SDS011;6503;48.572;13.460;2023-11-21T16:22:11;9.35;;;4.80;;
12869;SDS011;6503;48.572;13.460;2023-11-21T16:24:40;8.55;;;6.13;;
12869;SDS011;6503;48.572;13.460;2023-11-21T16:27:09;5.72;;;4.43;;
12869;SDS011;6503;48.572;13.460;2023-11-21T16:29:37;9.38;;;4.75;;
12869;SDS011;6503;48.572;13.460;2023-11-21T16:32:09;6.68;;;4.95;;
12869;SDS011;6503;48.572;13.460;2023-11-21T16:34:39;7.53;;;4.90;;
12869;SDS011;6503;48.572;13.460;2023-11-21T16:37:09;9.25;;;5.00;;
12869;SDS011;6503;48.572;13.460;2023-11-21T16:39:38;7.75;;;5.70;;
12869;SDS011;6503;48.572;13.460;2023-11-21T16:42:10;6.53;;;4.90;;
12869;SDS011;6503;48.572;13.460;2023-11-21T16:44:37;8.90;;;6.38;;
12869;SDS011;6503;48.572;13.460;2023-11-21T16:47:16;6.93;;;5.28;;
12869;SDS011;6503;48.572;13.460;2023-11-21T16:49:44;9.23;;;5.60;;